sensor_id;sensor_type;location;lat;lon;timestamp;temperature;humidity
21331;DHT22;10824;51.632;4.950;2024-01-30T00:00:22;8.00;99.90
21331;DHT22;10824;51.632;4.950;2024-01-30T00:02:49;8.00;99.90
21331;DHT22;10824;51.632;4.950;2024-01-30T00:05:18;8.00;99.90
21331;DHT22;10824;51.632;4.950;2024-01-30T00:07:47;8.10;99.90
21331;DHT22;10824;51.632;4.950;2024-01-30T00:10:15;8.10;99.90
21331;DHT22;10824;51.632;4.950;2024-01-30T00:12:43;8.10;99.90
21331;DHT22;10824;51.632;4.950;2024-01-30T00:15:12;8.10;99.90
21331;DHT22;10824;51.632;4.950;2024-01-30T00:17:39;8.10;99.90
21331;DHT22;10824;51.632;4.950;2024-01-30T00:20:09;8.00;99.90
21331;DHT22;10824;51.632;4.950;2024-01-30T00:22:37;8.00;99.90
21331;DHT22;10824;51.632;4.950;2024-01-30T00:25:04;8.00;99.90
21331;DHT22;10824;51.632;4.950;2024-01-30T00:27:34;8.00;99.90
21331;DHT22;10824;51.632;4.950;2024-01-30T00:30:01;8.00;99.90
21331;DHT22;10824;51.632;4.950;2024-01-30T00:32:34;8.10;99.90
21331;DHT22;10824;51.632;4.950;2024-01-30T00:35:01;8.00;99.90
21331;DHT22;10824;51.632;4.950;2024-01-30T00:37:31;7.90;99.90
21331;DHT22;10824;51.632;4.950;2024-01-30T00:39:59;7.90;99.90
21331;DHT22;10824;51.632;4.950;2024-01-30T00:42:29;8.00;99.90
21331;DHT22;10824;51.632;4.950;2024-01-30T00:44:57;8.10;99.90
21331;DHT22;10824;51.632;4.950;2024-01-30T00:47:27;8.10;99.90
21331;DHT22;10824;51.632;4.950;2024-01-30T00:49:56;8.10;99.90
21331;DHT22;10824;51.632;4.950;2024-01-30T00:52:23;8.00;99.90
21331;DHT22;10824;51.632;4.950;2024-01-30T00:54:50;8.10;99.90
21331;DHT22;10824;51.632;4.950;2024-01-30T00:57:18;8.10;99.90
21331;DHT22;10824;51.632;4.950;2024-01-30T00:59:46;8.10;99.90
21331;DHT22;10824;51.632;4.950;2024-01-30T01:02:14;8.10;99.90
21331;DHT22;10824;51.632;4.950;2024-01-30T01:04:43;8.00;99.90
21331;DHT22;10824;51.632;4.950;2024-01-30T01:07:11;8.00;99.90
21331;DHT22;10824;51.632;4.950;2024-01-30T01:09:38;8.00;99.90
21331;DHT22;10824;51.632;4.950;2024-01-30T01:12:07;8.10;99.90
21331;DHT22;10824;51.632;4.950;2024-01-30T01:14:34;8.00;99.90
21331;DHT22;10824;51.632;4.950;2024-01-30T01:17:04;8.00;99.90
21331;DHT22;10824;51.632;4.950;2024-01-30T01:19:32;8.10;99.90
21331;DHT22;10824;51.632;4.950;2024-01-30T01:22:02;8.20;99.90
21331;DHT22;10824;51.632;4.950;2024-01-30T01:24:33;8.20;99.90
21331;DHT22;10824;51.632;4.950;2024-01-30T01:27:04;8.20;99.90
21331;DHT22;10824;51.632;4.950;2024-01-30T01:29:32;8.20;99.90
21331;DHT22;10824;51.632;4.950;2024-01-30T01:32:00;8.20;99.90
21331;DHT22;10824;51.632;4.950;2024-01-30T01:34:28;8.20;99.90
21331;DHT22;10824;51.632;4.950;2024-01-30T01:36:58;8.20;99.90
21331;DHT22;10824;51.632;4.950;2024-01-30T01:39:26;8.20;99.90
21331;DHT22;10824;51.632;4.950;2024-01-30T01:41:55;8.10;99.90
21331;DHT22;10824;51.632;4.950;2024-01-30T01:44:24;8.20;99.90
21331;DHT22;10824;51.632;4.950;2024-01-30T01:46:52;8.20;99.90
21331;DHT22;10824;51.632;4.950;2024-01-30T01:49:22;8.10;99.90
21331;DHT22;10824;51.632;4.950;2024-01-30T01:51:51;8.10;99.90
21331;DHT22;10824;51.632;4.950;2024-01-30T01:54:19;8.00;99.90
21331;DHT22;10824;51.632;4.950;2024-01-30T01:56:50;8.00;99.90
21331;DHT22;10824;51.632;4.950;2024-01-30T01:59:20;8.00;99.90
21331;DHT22;10824;51.632;4.950;2024-01-30T02:01:50;8.00;99.90
21331;DHT22;10824;51.632;4.950;2024-01-30T02:04:20;8.00;99.90
21331;DHT22;10824;51.632;4.950;2024-01-30T02:06:48;8.00;99.90
21331;DHT22;10824;51.632;4.950;2024-01-30T02:09:16;7.90;99.90
21331;DHT22;10824;51.632;4.950;2024-01-30T02:11:45;7.90;99.90
21331;DHT22;10824;51.632;4.950;2024-01-30T02:14:12;7.80;99.90
21331;DHT22;10824;51.632;4.950;2024-01-30T02:16:41;7.80;99.90
21331;DHT22;10824;51.632;4.950;2024-01-30T02:19:09;7.70;99.90
21331;DHT22;10824;51.632;4.950;2024-01-30T02:21:37;7.70;99.90
21331;DHT22;10824;51.632;4.950;2024-01-30T02:24:05;7.80;99.90
21331;DHT22;10824;51.632;4.950;2024-01-30T02:26:35;7.80;99.90
21331;DHT22;10824;51.632;4.950;2024-01-30T02:29:03;7.80;99.90
21331;DHT22;10824;51.632;4.950;2024-01-30T02:31:31;7.80;99.90
21331;DHT22;10824;51.632;4.950;2024-01-30T02:33:58;7.80;99.90
21331;DHT22;10824;51.632;4.950;2024-01-30T02:36:26;7.70;99.90
21331;DHT22;10824;51.632;4.950;2024-01-30T02:38:54;7.70;99.90
21331;DHT22;10824;51.632;4.950;2024-01-30T02:41:22;7.80;99.90
21331;DHT22;10824;51.632;4.950;2024-01-30T02:43:49;7.80;99.90
21331;DHT22;10824;51.632;4.950;2024-01-30T02:46:17;7.90;99.90
21331;DHT22;10824;51.632;4.950;2024-01-30T02:48:45;7.90;99.90
21331;DHT22;10824;51.632;4.950;2024-01-30T02:51:15;7.90;99.90
21331;DHT22;10824;51.632;4.950;2024-01-30T02:53:43;7.80;99.90
21331;DHT22;10824;51.632;4.950;2024-01-30T02:56:11;7.80;99.90
21331;DHT22;10824;51.632;4.950;2024-01-30T02:58:40;7.90;99.90
21331;DHT22;10824;51.632;4.950;2024-01-30T03:01:08;7.90;99.90
21331;DHT22;10824;51.632;4.950;2024-01-30T03:03:36;7.90;99.90
21331;DHT22;10824;51.632;4.950;2024-01-30T03:06:03;7.80;99.90
21331;DHT22;10824;51.632;4.950;2024-01-30T03:08:30;7.80;99.90
21331;DHT22;10824;51.632;4.950;2024-01-30T03:10:58;7.70;99.90
21331;DHT22;10824;51.632;4.950;2024-01-30T03:13:31;7.80;99.90
21331;DHT22;10824;51.632;4.950;2024-01-30T03:15:59;7.80;99.90
21331;DHT22;10824;51.632;4.950;2024-01-30T03:18:26;7.70;99.90
21331;DHT22;10824;51.632;4.950;2024-01-30T03:20:55;7.70;99.90
21331;DHT22;10824;51.632;4.950;2024-01-30T03:23:23;7.70;99.90
21331;DHT22;10824;51.632;4.950;2024-01-30T03:25:52;7.70;99.90
21331;DHT22;10824;51.632;4.950;2024-01-30T03:28:19;7.80;99.90
21331;DHT22;10824;51.632;4.950;2024-01-30T03:30:48;7.80;99.90
21331;DHT22;10824;51.632;4.950;2024-01-30T03:33:15;7.70;99.90
21331;DHT22;10824;51.632;4.950;2024-01-30T03:35:44;7.80;99.90
21331;DHT22;10824;51.632;4.950;2024-01-30T03:38:15;7.70;99.90
21331;DHT22;10824;51.632;4.950;2024-01-30T03:40:43;7.80;99.90
21331;DHT22;10824;51.632;4.950;2024-01-30T03:43:13;7.80;99.90
21331;DHT22;10824;51.632;4.950;2024-01-30T03:45:40;7.80;99.90
21331;DHT22;10824;51.632;4.950;2024-01-30T03:48:09;7.80;99.90
21331;DHT22;10824;51.632;4.950;2024-01-30T03:50:37;7.80;99.90
21331;DHT22;10824;51.632;4.950;2024-01-30T03:53:07;7.80;99.90
21331;DHT22;10824;51.632;4.950;2024-01-30T03:55:36;7.90;99.90
21331;DHT22;10824;51.632;4.950;2024-01-30T03:58:05;7.90;99.90
21331;DHT22;10824;51.632;4.950;2024-01-30T04:00:33;8.00;99.90
21331;DHT22;10824;51.632;4.950;2024-01-30T04:03:00;7.90;99.90
21331;DHT22;10824;51.632;4.950;2024-01-30T04:05:27;7.90;99.90
21331;DHT22;10824;51.632;4.950;2024-01-30T04:07:56;8.00;99.90
21331;DHT22;10824;51.632;4.950;2024-01-30T04:10:24;8.00;99.90
21331;DHT22;10824;51.632;4.950;2024-01-30T04:12:54;8.00;99.90
21331;DHT22;10824;51.632;4.950;2024-01-30T04:15:21;7.90;99.90
21331;DHT22;10824;51.632;4.950;2024-01-30T04:17:50;7.90;99.90
21331;DHT22;10824;51.632;4.950;2024-01-30T04:20:17;7.90;99.90
21331;DHT22;10824;51.632;4.950;2024-01-30T04:22:45;7.90;99.90
21331;DHT22;10824;51.632;4.950;2024-01-30T04:25:13;7.80;99.90
21331;DHT22;10824;51.632;4.950;2024-01-30T04:27:40;7.90;99.90
21331;DHT22;10824;51.632;4.950;2024-01-30T04:30:08;7.90;99.90
21331;DHT22;10824;51.632;4.950;2024-01-30T04:32:36;7.90;99.90
21331;DHT22;10824;51.632;4.950;2024-01-30T04:35:04;7.90;99.90
21331;DHT22;10824;51.632;4.950;2024-01-30T04:37:37;7.90;99.90
21331;DHT22;10824;51.632;4.950;2024-01-30T04:40:05;7.90;99.90
21331;DHT22;10824;51.632;4.950;2024-01-30T04:42:33;7.90;99.90
21331;DHT22;10824;51.632;4.950;2024-01-30T04:45:01;7.90;99.90
21331;DHT22;10824;51.632;4.950;2024-01-30T04:47:29;7.90;99.90
21331;DHT22;10824;51.632;4.950;2024-01-30T04:49:56;7.90;99.90
21331;DHT22;10824;51.632;4.950;2024-01-30T04:52:24;8.00;99.90
21331;DHT22;10824;51.632;4.950;2024-01-30T04:54:51;7.90;99.90
21331;DHT22;10824;51.632;4.950;2024-01-30T04:57:18;8.00;99.90
21331;DHT22;10824;51.632;4.950;2024-01-30T04:59:46;8.00;99.90
21331;DHT22;10824;51.632;4.950;2024-01-30T05:02:14;8.00;99.90
21331;DHT22;10824;51.632;4.950;2024-01-30T05:04:43;8.00;99.90
21331;DHT22;10824;51.632;4.950;2024-01-30T05:07:13;8.00;99.90
21331;DHT22;10824;51.632;4.950;2024-01-30T05:09:40;8.10;99.90
21331;DHT22;10824;51.632;4.950;2024-01-30T05:12:08;8.10;99.90
21331;DHT22;10824;51.632;4.950;2024-01-30T05:14:35;8.00;99.90
21331;DHT22;10824;51.632;4.950;2024-01-30T05:17:10;8.10;99.90
21331;DHT22;10824;51.632;4.950;2024-01-30T05:19:40;8.00;99.90
21331;DHT22;10824;51.632;4.950;2024-01-30T05:22:13;8.10;99.90
21331;DHT22;10824;51.632;4.950;2024-01-30T05:24:42;8.10;99.90
21331;DHT22;10824;51.632;4.950;2024-01-30T05:27:11;8.10;99.90
21331;DHT22;10824;51.632;4.950;2024-01-30T05:29:41;8.10;99.90
21331;DHT22;10824;51.632;4.950;2024-01-30T05:32:09;8.00;99.90
21331;DHT22;10824;51.632;4.950;2024-01-30T05:34:38;8.10;99.90
21331;DHT22;10824;51.632;4.950;2024-01-30T05:37:06;8.10;99.90
21331;DHT22;10824;51.632;4.950;2024-01-30T05:39:33;8.10;99.90
21331;DHT22;10824;51.632;4.950;2024-01-30T05:42:00;8.10;99.90
21331;DHT22;10824;51.632;4.950;2024-01-30T05:44:28;8.10;99.90
21331;DHT22;10824;51.632;4.950;2024-01-30T05:46:55;8.10;99.90
21331;DHT22;10824;51.632;4.950;2024-01-30T05:49:23;8.10;99.90
21331;DHT22;10824;51.632;4.950;2024-01-30T05:51:50;8.10;99.90
21331;DHT22;10824;51.632;4.950;2024-01-30T05:54:18;8.10;99.90
21331;DHT22;10824;51.632;4.950;2024-01-30T05:56:45;8.10;99.90
21331;DHT22;10824;51.632;4.950;2024-01-30T05:59:13;8.10;99.90
21331;DHT22;10824;51.632;4.950;2024-01-30T06:01:49;8.10;99.90
21331;DHT22;10824;51.632;4.950;2024-01-30T06:04:17;8.10;99.90
21331;DHT22;10824;51.632;4.950;2024-01-30T06:06:45;8.10;99.90
21331;DHT22;10824;51.632;4.950;2024-01-30T06:09:13;8.10;99.90
21331;DHT22;10824;51.632;4.950;2024-01-30T06:11:41;8.10;99.90
21331;DHT22;10824;51.632;4.950;2024-01-30T06:14:10;8.10;99.90
21331;DHT22;10824;51.632;4.950;2024-01-30T06:16:38;8.10;99.90
21331;DHT22;10824;51.632;4.950;2024-01-30T06:19:06;8.00;99.90
21331;DHT22;10824;51.632;4.950;2024-01-30T06:21:33;8.10;99.90
21331;DHT22;10824;51.632;4.950;2024-01-30T06:24:04;8.10;99.90
21331;DHT22;10824;51.632;4.950;2024-01-30T06:26:31;8.10;99.90
21331;DHT22;10824;51.632;4.950;2024-01-30T06:28:59;8.10;99.90
21331;DHT22;10824;51.632;4.950;2024-01-30T06:31:26;8.10;99.90
21331;DHT22;10824;51.632;4.950;2024-01-30T06:33:53;8.20;99.90
21331;DHT22;10824;51.632;4.950;2024-01-30T06:36:21;8.20;99.90
21331;DHT22;10824;51.632;4.950;2024-01-30T06:38:48;8.20;99.90
21331;DHT22;10824;51.632;4.950;2024-01-30T06:41:15;8.30;99.90
21331;DHT22;10824;51.632;4.950;2024-01-30T06:43:43;8.20;99.90
21331;DHT22;10824;51.632;4.950;2024-01-30T06:46:12;8.30;99.90
21331;DHT22;10824;51.632;4.950;2024-01-30T06:48:41;8.40;99.90
21331;DHT22;10824;51.632;4.950;2024-01-30T06:51:11;8.40;99.90
21331;DHT22;10824;51.632;4.950;2024-01-30T06:53:43;8.40;99.90
21331;DHT22;10824;51.632;4.950;2024-01-30T06:56:10;8.50;99.90
21331;DHT22;10824;51.632;4.950;2024-01-30T06:58:37;8.50;99.90
21331;DHT22;10824;51.632;4.950;2024-01-30T07:01:06;8.70;99.90
21331;DHT22;10824;51.632;4.950;2024-01-30T07:03:33;8.70;99.90
21331;DHT22;10824;51.632;4.950;2024-01-30T07:06:01;8.80;99.90
21331;DHT22;10824;51.632;4.950;2024-01-30T07:08:28;8.80;99.90
21331;DHT22;10824;51.632;4.950;2024-01-30T07:10:55;8.90;99.90
21331;DHT22;10824;51.632;4.950;2024-01-30T07:13:29;8.90;99.90
21331;DHT22;10824;51.632;4.950;2024-01-30T07:15:59;8.90;99.90
21331;DHT22;10824;51.632;4.950;2024-01-30T07:18:26;9.00;99.90
21331;DHT22;10824;51.632;4.950;2024-01-30T07:20:54;9.00;99.90
21331;DHT22;10824;51.632;4.950;2024-01-30T07:23:22;9.10;99.90
21331;DHT22;10824;51.632;4.950;2024-01-30T07:25:50;9.00;99.90
21331;DHT22;10824;51.632;4.950;2024-01-30T07:28:18;9.10;99.90
21331;DHT22;10824;51.632;4.950;2024-01-30T07:30:49;9.20;99.90
21331;DHT22;10824;51.632;4.950;2024-01-30T07:33:17;9.10;99.90
21331;DHT22;10824;51.632;4.950;2024-01-30T07:35:45;9.20;99.90
21331;DHT22;10824;51.632;4.950;2024-01-30T07:38:14;9.10;99.90
21331;DHT22;10824;51.632;4.950;2024-01-30T07:40:43;9.20;99.90
21331;DHT22;10824;51.632;4.950;2024-01-30T07:43:12;9.20;99.90
21331;DHT22;10824;51.632;4.950;2024-01-30T07:45:39;9.30;99.90
21331;DHT22;10824;51.632;4.950;2024-01-30T07:48:06;9.20;99.90
21331;DHT22;10824;51.632;4.950;2024-01-30T07:50:34;9.30;99.90
21331;DHT22;10824;51.632;4.950;2024-01-30T07:53:03;9.20;99.90
21331;DHT22;10824;51.632;4.950;2024-01-30T07:55:32;9.20;99.90
21331;DHT22;10824;51.632;4.950;2024-01-30T07:58:00;9.30;99.90
21331;DHT22;10824;51.632;4.950;2024-01-30T08:00:29;9.30;99.90
21331;DHT22;10824;51.632;4.950;2024-01-30T08:02:57;9.40;99.90
21331;DHT22;10824;51.632;4.950;2024-01-30T08:05:26;9.40;99.90
21331;DHT22;10824;51.632;4.950;2024-01-30T08:07:53;9.40;99.90
21331;DHT22;10824;51.632;4.950;2024-01-30T08:10:21;9.40;99.90
21331;DHT22;10824;51.632;4.950;2024-01-30T08:12:48;9.50;99.90
21331;DHT22;10824;51.632;4.950;2024-01-30T08:15:16;9.60;99.90
21331;DHT22;10824;51.632;4.950;2024-01-30T08:17:44;9.60;99.90
21331;DHT22;10824;51.632;4.950;2024-01-30T08:20:12;9.70;99.90
21331;DHT22;10824;51.632;4.950;2024-01-30T08:22:42;9.70;99.90
21331;DHT22;10824;51.632;4.950;2024-01-30T08:25:10;9.70;99.90
21331;DHT22;10824;51.632;4.950;2024-01-30T08:27:40;9.80;99.90
21331;DHT22;10824;51.632;4.950;2024-01-30T08:30:07;9.70;99.90
21331;DHT22;10824;51.632;4.950;2024-01-30T08:32:35;9.90;99.90
21331;DHT22;10824;51.632;4.950;2024-01-30T08:35:03;9.80;99.90
21331;DHT22;10824;51.632;4.950;2024-01-30T08:37:31;9.90;99.90
21331;DHT22;10824;51.632;4.950;2024-01-30T08:39:58;9.80;99.90
21331;DHT22;10824;51.632;4.950;2024-01-30T08:42:26;10.00;99.90
21331;DHT22;10824;51.632;4.950;2024-01-30T08:44:56;9.90;99.90
21331;DHT22;10824;51.632;4.950;2024-01-30T08:47:25;10.00;99.90
21331;DHT22;10824;51.632;4.950;2024-01-30T08:49:53;10.00;99.90
21331;DHT22;10824;51.632;4.950;2024-01-30T08:52:20;10.00;99.90
21331;DHT22;10824;51.632;4.950;2024-01-30T08:54:48;10.00;99.90
21331;DHT22;10824;51.632;4.950;2024-01-30T08:57:15;10.10;99.90
21331;DHT22;10824;51.632;4.950;2024-01-30T08:59:43;10.10;99.90
21331;DHT22;10824;51.632;4.950;2024-01-30T09:02:13;10.10;99.90
21331;DHT22;10824;51.632;4.950;2024-01-30T09:04:43;10.20;99.90
21331;DHT22;10824;51.632;4.950;2024-01-30T09:07:12;10.20;99.90
21331;DHT22;10824;51.632;4.950;2024-01-30T09:09:41;10.20;99.90
21331;DHT22;10824;51.632;4.950;2024-01-30T09:12:09;10.20;99.90
21331;DHT22;10824;51.632;4.950;2024-01-30T09:14:39;10.20;99.90
21331;DHT22;10824;51.632;4.950;2024-01-30T09:17:08;10.20;99.90
21331;DHT22;10824;51.632;4.950;2024-01-30T09:19:35;10.20;99.90
21331;DHT22;10824;51.632;4.950;2024-01-30T09:22:04;10.20;99.90
21331;DHT22;10824;51.632;4.950;2024-01-30T09:24:31;10.30;99.90
21331;DHT22;10824;51.632;4.950;2024-01-30T09:26:58;10.20;99.90
21331;DHT22;10824;51.632;4.950;2024-01-30T09:29:26;10.30;99.90
21331;DHT22;10824;51.632;4.950;2024-01-30T09:31:54;10.30;99.90
21331;DHT22;10824;51.632;4.950;2024-01-30T09:34:23;10.30;99.90
21331;DHT22;10824;51.632;4.950;2024-01-30T09:36:51;10.30;99.90
21331;DHT22;10824;51.632;4.950;2024-01-30T09:39:19;10.40;99.90
21331;DHT22;10824;51.632;4.950;2024-01-30T09:44:54;10.40;99.90
21331;DHT22;10824;51.632;4.950;2024-01-30T09:47:24;10.50;99.90
21331;DHT22;10824;51.632;4.950;2024-01-30T09:49:52;10.50;99.90
21331;DHT22;10824;51.632;4.950;2024-01-30T09:52:20;10.50;99.90
21331;DHT22;10824;51.632;4.950;2024-01-30T09:54:49;10.50;99.90
21331;DHT22;10824;51.632;4.950;2024-01-30T09:57:18;10.50;99.90
21331;DHT22;10824;51.632;4.950;2024-01-30T09:59:48;10.60;99.90
21331;DHT22;10824;51.632;4.950;2024-01-30T10:02:16;10.70;99.90
21331;DHT22;10824;51.632;4.950;2024-01-30T10:04:50;10.60;99.90
21331;DHT22;10824;51.632;4.950;2024-01-30T10:07:18;10.60;99.90
21331;DHT22;10824;51.632;4.950;2024-01-30T10:09:46;10.60;99.90
21331;DHT22;10824;51.632;4.950;2024-01-30T10:12:16;10.70;99.90
21331;DHT22;10824;51.632;4.950;2024-01-30T10:14:43;10.70;99.90
21331;DHT22;10824;51.632;4.950;2024-01-30T10:17:12;10.90;99.90
21331;DHT22;10824;51.632;4.950;2024-01-30T10:19:54;10.90;99.90
21331;DHT22;10824;51.632;4.950;2024-01-30T10:22:23;11.00;99.90
21331;DHT22;10824;51.632;4.950;2024-01-30T10:24:52;11.00;99.90
21331;DHT22;10824;51.632;4.950;2024-01-30T10:27:32;11.10;99.90
21331;DHT22;10824;51.632;4.950;2024-01-30T10:30:01;11.00;99.90
21331;DHT22;10824;51.632;4.950;2024-01-30T10:32:28;11.10;99.90
21331;DHT22;10824;51.632;4.950;2024-01-30T10:34:57;11.00;99.90
21331;DHT22;10824;51.632;4.950;2024-01-30T10:37:25;11.10;99.90
21331;DHT22;10824;51.632;4.950;2024-01-30T10:39:54;11.10;99.90
21331;DHT22;10824;51.632;4.950;2024-01-30T10:42:26;11.10;99.90
21331;DHT22;10824;51.632;4.950;2024-01-30T10:45:07;11.20;99.90
21331;DHT22;10824;51.632;4.950;2024-01-30T10:47:50;11.10;99.90
21331;DHT22;10824;51.632;4.950;2024-01-30T10:50:18;11.30;99.90
21331;DHT22;10824;51.632;4.950;2024-01-30T10:52:46;11.30;99.90
21331;DHT22;10824;51.632;4.950;2024-01-30T10:55:22;11.20;99.90
21331;DHT22;10824;51.632;4.950;2024-01-30T10:57:51;11.30;99.90
21331;DHT22;10824;51.632;4.950;2024-01-30T11:00:19;11.30;99.90
21331;DHT22;10824;51.632;4.950;2024-01-30T11:02:50;11.40;99.90
21331;DHT22;10824;51.632;4.950;2024-01-30T11:05:24;11.40;99.90
21331;DHT22;10824;51.632;4.950;2024-01-30T11:08:11;11.30;99.90
21331;DHT22;10824;51.632;4.950;2024-01-30T11:10:46;11.20;99.90
21331;DHT22;10824;51.632;4.950;2024-01-30T11:13:14;11.30;99.90
21331;DHT22;10824;51.632;4.950;2024-01-30T11:15:42;11.20;99.90
21331;DHT22;10824;51.632;4.950;2024-01-30T11:18:11;11.20;99.90
21331;DHT22;10824;51.632;4.950;2024-01-30T11:20:38;11.30;99.90
21331;DHT22;10824;51.632;4.950;2024-01-30T11:23:14;11.20;99.90
21331;DHT22;10824;51.632;4.950;2024-01-30T11:25:44;11.20;99.90
21331;DHT22;10824;51.632;4.950;2024-01-30T11:28:15;11.20;99.90
21331;DHT22;10824;51.632;4.950;2024-01-30T11:30:43;11.20;99.90
21331;DHT22;10824;51.632;4.950;2024-01-30T11:33:15;11.20;99.90
21331;DHT22;10824;51.632;4.950;2024-01-30T11:35:44;11.10;1.00
21331;DHT22;10824;51.632;4.950;2024-01-30T11:38:14;11.10;99.90
21331;DHT22;10824;51.632;4.950;2024-01-30T11:40:42;11.00;99.90
21331;DHT22;10824;51.632;4.950;2024-01-30T11:43:12;11.10;99.90
21331;DHT22;10824;51.632;4.950;2024-01-30T11:45:40;11.10;1.00
21331;DHT22;10824;51.632;4.950;2024-01-30T11:48:08;11.00;1.00
21331;DHT22;10824;51.632;4.950;2024-01-30T11:50:39;10.90;1.00
21331;DHT22;10824;51.632;4.950;2024-01-30T11:53:08;10.90;1.00
21331;DHT22;10824;51.632;4.950;2024-01-30T11:55:37;10.90;99.90
21331;DHT22;10824;51.632;4.950;2024-01-30T11:58:05;11.00;99.90
21331;DHT22;10824;51.632;4.950;2024-01-30T12:00:33;11.00;99.90
21331;DHT22;10824;51.632;4.950;2024-01-30T12:03:02;11.10;99.90
21331;DHT22;10824;51.632;4.950;2024-01-30T12:05:31;11.10;1.00
21331;DHT22;10824;51.632;4.950;2024-01-30T12:07:59;11.10;99.90
21331;DHT22;10824;51.632;4.950;2024-01-30T12:10:29;11.00;1.00
21331;DHT22;10824;51.632;4.950;2024-01-30T12:13:01;10.90;99.90
21331;DHT22;10824;51.632;4.950;2024-01-30T12:15:29;10.90;1.00
21331;DHT22;10824;51.632;4.950;2024-01-30T12:18:06;10.80;99.90
21331;DHT22;10824;51.632;4.950;2024-01-30T12:20:34;10.70;1.00
21331;DHT22;10824;51.632;4.950;2024-01-30T12:23:02;10.70;99.90
21331;DHT22;10824;51.632;4.950;2024-01-30T12:25:29;10.60;99.90
21331;DHT22;10824;51.632;4.950;2024-01-30T12:27:58;10.60;99.90
21331;DHT22;10824;51.632;4.950;2024-01-30T12:30:27;10.60;62.60
21331;DHT22;10824;51.632;4.950;2024-01-30T12:32:55;10.50;1.00
21331;DHT22;10824;51.632;4.950;2024-01-30T12:35:26;10.50;39.10
21331;DHT22;10824;51.632;4.950;2024-01-30T12:37:58;10.50;99.90
21331;DHT22;10824;51.632;4.950;2024-01-30T12:40:26;10.50;99.90
21331;DHT22;10824;51.632;4.950;2024-01-30T12:42:54;10.40;99.90
21331;DHT22;10824;51.632;4.950;2024-01-30T12:45:22;10.40;1.00
21331;DHT22;10824;51.632;4.950;2024-01-30T12:47:50;10.40;1.00
21331;DHT22;10824;51.632;4.950;2024-01-30T12:50:17;10.30;99.90
21331;DHT22;10824;51.632;4.950;2024-01-30T12:52:45;10.30;99.90
21331;DHT22;10824;51.632;4.950;2024-01-30T12:55:16;10.20;1.00
21331;DHT22;10824;51.632;4.950;2024-01-30T12:57:45;10.20;99.90
21331;DHT22;10824;51.632;4.950;2024-01-30T13:00:13;10.20;1.00
21331;DHT22;10824;51.632;4.950;2024-01-30T13:02:40;10.20;99.90
21331;DHT22;10824;51.632;4.950;2024-01-30T13:05:10;10.10;99.90
21331;DHT22;10824;51.632;4.950;2024-01-30T13:07:37;9.90;99.90
21331;DHT22;10824;51.632;4.950;2024-01-30T13:10:07;9.80;1.00
21331;DHT22;10824;51.632;4.950;2024-01-30T13:12:35;9.70;66.10
21331;DHT22;10824;51.632;4.950;2024-01-30T13:15:04;9.60;99.90
21331;DHT22;10824;51.632;4.950;2024-01-30T13:17:33;9.60;99.90
21331;DHT22;10824;51.632;4.950;2024-01-30T13:20:01;9.50;99.90
21331;DHT22;10824;51.632;4.950;2024-01-30T13:22:37;9.50;99.90
21331;DHT22;10824;51.632;4.950;2024-01-30T13:25:09;9.50;99.90
21331;DHT22;10824;51.632;4.950;2024-01-30T13:27:37;9.50;99.90
21331;DHT22;10824;51.632;4.950;2024-01-30T13:30:07;9.40;99.90
21331;DHT22;10824;51.632;4.950;2024-01-30T13:32:36;9.40;99.90
21331;DHT22;10824;51.632;4.950;2024-01-30T13:35:04;9.40;99.90
21331;DHT22;10824;51.632;4.950;2024-01-30T13:37:32;9.40;99.90
21331;DHT22;10824;51.632;4.950;2024-01-30T13:39:59;9.20;99.90
21331;DHT22;10824;51.632;4.950;2024-01-30T13:42:33;9.20;99.90
21331;DHT22;10824;51.632;4.950;2024-01-30T13:45:00;9.20;99.90
21331;DHT22;10824;51.632;4.950;2024-01-30T13:47:28;9.20;99.90
21331;DHT22;10824;51.632;4.950;2024-01-30T13:49:55;9.20;99.90
21331;DHT22;10824;51.632;4.950;2024-01-30T13:52:22;9.10;99.90
21331;DHT22;10824;51.632;4.950;2024-01-30T13:54:58;9.10;99.90
21331;DHT22;10824;51.632;4.950;2024-01-30T13:57:25;9.10;99.90
21331;DHT22;10824;51.632;4.950;2024-01-30T13:59:52;9.10;99.90
21331;DHT22;10824;51.632;4.950;2024-01-30T14:02:20;9.10;99.90
21331;DHT22;10824;51.632;4.950;2024-01-30T14:04:49;9.10;99.90
21331;DHT22;10824;51.632;4.950;2024-01-30T14:07:17;9.10;99.90
21331;DHT22;10824;51.632;4.950;2024-01-30T14:09:47;9.20;99.90
21331;DHT22;10824;51.632;4.950;2024-01-30T14:12:14;9.20;99.90
21331;DHT22;10824;51.632;4.950;2024-01-30T14:14:42;9.20;99.90
21331;DHT22;10824;51.632;4.950;2024-01-30T14:17:09;9.20;99.90
21331;DHT22;10824;51.632;4.950;2024-01-30T14:19:36;9.20;99.90
21331;DHT22;10824;51.632;4.950;2024-01-30T14:22:03;9.20;99.90
21331;DHT22;10824;51.632;4.950;2024-01-30T14:24:30;9.20;99.90
21331;DHT22;10824;51.632;4.950;2024-01-30T14:26:58;9.20;99.90
21331;DHT22;10824;51.632;4.950;2024-01-30T14:29:26;9.30;99.90
21331;DHT22;10824;51.632;4.950;2024-01-30T14:31:55;9.30;99.90
21331;DHT22;10824;51.632;4.950;2024-01-30T14:34:24;9.30;99.90
21331;DHT22;10824;51.632;4.950;2024-01-30T14:36:52;9.30;99.90
21331;DHT22;10824;51.632;4.950;2024-01-30T14:39:20;9.30;99.90
21331;DHT22;10824;51.632;4.950;2024-01-30T14:41:47;9.20;99.90
21331;DHT22;10824;51.632;4.950;2024-01-30T14:44:15;9.30;99.90
21331;DHT22;10824;51.632;4.950;2024-01-30T14:46:42;9.20;99.90
21331;DHT22;10824;51.632;4.950;2024-01-30T14:49:10;9.10;99.90
21331;DHT22;10824;51.632;4.950;2024-01-30T14:51:41;9.10;99.90
21331;DHT22;10824;51.632;4.950;2024-01-30T14:54:10;9.00;99.90
21331;DHT22;10824;51.632;4.950;2024-01-30T14:56:41;9.00;99.90
21331;DHT22;10824;51.632;4.950;2024-01-30T14:59:08;9.00;99.90
21331;DHT22;10824;51.632;4.950;2024-01-30T15:01:36;9.00;99.90
21331;DHT22;10824;51.632;4.950;2024-01-30T15:04:04;8.80;99.90
21331;DHT22;10824;51.632;4.950;2024-01-30T15:06:33;8.80;99.90
21331;DHT22;10824;51.632;4.950;2024-01-30T15:09:00;8.80;99.90
21331;DHT22;10824;51.632;4.950;2024-01-30T15:11:27;8.70;99.90
21331;DHT22;10824;51.632;4.950;2024-01-30T15:13:54;8.60;99.90
21331;DHT22;10824;51.632;4.950;2024-01-30T15:16:22;8.60;99.90
21331;DHT22;10824;51.632;4.950;2024-01-30T15:18:50;8.60;99.90
21331;DHT22;10824;51.632;4.950;2024-01-30T15:21:19;8.50;99.90
21331;DHT22;10824;51.632;4.950;2024-01-30T15:23:52;8.40;99.90
21331;DHT22;10824;51.632;4.950;2024-01-30T15:26:23;8.50;99.90
21331;DHT22;10824;51.632;4.950;2024-01-30T15:28:51;8.40;99.90
21331;DHT22;10824;51.632;4.950;2024-01-30T15:31:19;8.40;99.90
21331;DHT22;10824;51.632;4.950;2024-01-30T15:33:47;8.30;99.90
21331;DHT22;10824;51.632;4.950;2024-01-30T15:36:14;8.40;99.90
21331;DHT22;10824;51.632;4.950;2024-01-30T15:38:42;8.30;99.90
21331;DHT22;10824;51.632;4.950;2024-01-30T15:41:09;8.30;99.90
21331;DHT22;10824;51.632;4.950;2024-01-30T15:43:37;8.40;99.90
21331;DHT22;10824;51.632;4.950;2024-01-30T15:46:05;8.30;99.90
21331;DHT22;10824;51.632;4.950;2024-01-30T15:48:32;8.30;99.90
21331;DHT22;10824;51.632;4.950;2024-01-30T15:51:01;8.40;99.90
21331;DHT22;10824;51.632;4.950;2024-01-30T15:53:29;8.30;99.90